Time;durP1;ratioP1;P1;durP2;ratioP2;P2;SDS_P1;SDS_P2;PMS_P1;PMS_P2;Temp;Humidity;BMP_temperature;BMP_pressure;BME280_temperature;BME280_humidity;BME280_pressure;Samples;Min_cycle;Max_cycle;Signal;HPM_P1;HPM_P2
2021/09/14 00:02:01;;;;;;;19.83;7.85;;;;;;;;;;4908669;29;20023;-79
2021/09/14 00:04:46;;;;;;;14.90;7.75;;;;;;;;;;4906280;29;20044;-79
2021/09/14 00:07:31;;;;;;;11.38;7.43;;;;;;;;;;4916372;29;20104;-78
2021/09/14 00:10:19;;;;;;;12.48;7.68;;;;;;;;;;4909650;29;20046;-78
2021/09/14 00:13:07;;;;;;;18.55;8.23;;;;;;;;;;4903964;29;20054;-80
2021/09/14 00:15:52;;;;;;;10.68;7.95;;;;;;;;;;4932074;29;20071;-80
2021/09/14 00:18:37;;;;;;;12.70;8.05;;;;;;;;;;4911552;29;20126;-79
2021/09/14 00:21:23;;;;;;;11.70;7.28;;;;;;;;;;4901073;29;20026;-79
2021/09/14 00:24:08;;;;;;;10.90;6.97;;;;;;;;;;4917885;29;20030;-80
2021/09/14 00:26:53;;;;;;;13.55;7.63;;;;;;;;;;4903652;29;20078;-80
2021/09/14 00:29:39;;;;;;;12.63;7.07;;;;;;;;;;4913848;29;20032;-81
2021/09/14 00:32:24;;;;;;;10.07;7.15;;;;;;;;;;4925386;29;20012;-81
2021/09/14 00:35:09;;;;;;;12.63;7.40;;;;;;;;;;4902968;29;20107;-81
2021/09/14 00:37:54;;;;;;;13.00;6.82;;;;;;;;;;4898984;29;20024;-81
2021/09/14 00:40:40;;;;;;;11.32;6.50;;;;;;;;;;4907815;29;20095;-80
2021/09/14 00:43:25;;;;;;;11.32;6.70;;;;;;;;;;4909499;29;20016;-80
2021/09/14 00:46:11;;;;;;;9.40;6.18;;;;;;;;;;4911123;29;20030;-80
2021/09/14 00:48:56;;;;;;;9.43;5.97;;;;;;;;;;4904150;29;20031;-79
2021/09/14 00:51:42;;;;;;;9.30;6.25;;;;;;;;;;4906877;29;20028;-80
2021/09/14 00:54:27;;;;;;;9.05;6.40;;;;;;;;;;4904575;29;20027;-80
2021/09/14 00:57:12;;;;;;;6.97;5.10;;;;;;;;;;4909648;29;20646;-80
2021/09/14 00:59:58;;;;;;;8.50;5.82;;;;;;;;;;4911542;29;20499;-80
2021/09/14 01:02:43;;;;;;;9.82;6.00;;;;;;;;;;4910902;29;20999;-80
2021/09/14 01:05:28;;;;;;;8.32;5.80;;;;;;;;;;4909585;29;20084;-79
2021/09/14 01:08:14;;;;;;;9.40;6.40;;;;;;;;;;4907439;29;20604;-79
2021/09/14 01:11:00;;;;;;;9.52;5.93;;;;;;;;;;4905661;29;20090;-79
2021/09/14 01:13:45;;;;;;;7.43;5.60;;;;;;;;;;4913852;29;20122;-79
2021/09/14 01:16:31;;;;;;;10.57;6.75;;;;;;;;;;4913195;29;20062;-80
2021/09/14 01:19:17;;;;;;;14.90;6.95;;;;;;;;;;4910790;29;20043;-80
2021/09/14 01:22:02;;;;;;;10.18;6.82;;;;;;;;;;4905784;29;20032;-80
2021/09/14 01:24:47;;;;;;;11.02;6.78;;;;;;;;;;4913509;29;20028;-80
2021/09/14 01:27:32;;;;;;;12.52;7.15;;;;;;;;;;4911692;29;20083;-81
2021/09/14 01:30:19;;;;;;;16.52;7.25;;;;;;;;;;4911130;29;20074;-81
2021/09/14 01:33:04;;;;;;;14.88;8.35;;;;;;;;;;4908224;29;20055;-80
2021/09/14 01:35:50;;;;;;;14.88;8.23;;;;;;;;;;4905650;29;20028;-80
2021/09/14 01:38:35;;;;;;;22.10;9.10;;;;;;;;;;4900975;29;20030;-80
2021/09/14 01:41:20;;;;;;;17.63;8.10;;;;;;;;;;4911389;29;20038;-81
2021/09/14 01:44:06;;;;;;;24.02;9.10;;;;;;;;;;4909737;29;20016;-80
2021/09/14 01:46:52;;;;;;;15.88;7.90;;;;;;;;;;4909432;29;20024;-80
2021/09/14 01:49:37;;;;;;;19.30;8.70;;;;;;;;;;4907521;29;20032;-80
2021/09/14 01:52:25;;;;;;;17.25;8.52;;;;;;;;;;4904822;29;20016;-80
2021/09/14 01:55:11;;;;;;;21.27;8.77;;;;;;;;;;4906798;29;20518;-79
2021/09/14 01:57:57;;;;;;;18.83;8.27;;;;;;;;;;4909783;29;20036;-80
2021/09/14 02:00:56;;;;;;;11.85;7.22;;;;;;;;;;4908613;29;20119;-80
2021/09/14 02:03:56;;;;;;;12.57;7.27;;;;;;;;;;4912893;29;20038;-80
2021/09/14 02:07:19;;;;;;;16.73;8.20;;;;;;;;;;4908094;29;20035;-81
2021/09/14 03:01:08;;;;;;;10.80;6.13;;;;;;;;;;4914520;29;20024;-82
2021/09/14 03:03:55;;;;;;;9.65;5.90;;;;;;;;;;4910228;29;20050;-82
2021/09/14 03:06:41;;;;;;;9.82;5.80;;;;;;;;;;4910263;29;20055;-81
2021/09/14 03:09:26;;;;;;;11.23;5.38;;;;;;;;;;4906662;29;20039;-80
2021/09/14 03:12:11;;;;;;;9.15;5.93;;;;;;;;;;4913933;29;20036;-80
2021/09/14 03:14:56;;;;;;;9.48;5.82;;;;;;;;;;4909114;29;20568;-80
2021/09/14 03:17:42;;;;;;;9.48;5.85;;;;;;;;;;4899164;29;20036;-80
2021/09/14 03:20:27;;;;;;;11.02;6.32;;;;;;;;;;4906989;29;20023;-80
2021/09/14 03:23:12;;;;;;;8.63;5.60;;;;;;;;;;4895975;29;20012;-80
2021/09/14 03:25:58;;;;;;;9.77;5.95;;;;;;;;;;4909417;29;20051;-80
2021/09/14 03:28:43;;;;;;;9.68;6.07;;;;;;;;;;4912686;29;20034;-80
2021/09/14 03:31:29;;;;;;;8.75;5.20;;;;;;;;;;4893454;29;20039;-81
2021/09/14 03:34:14;;;;;;;9.50;6.30;;;;;;;;;;4922396;29;20110;-79
2021/09/14 03:37:00;;;;;;;9.23;5.60;;;;;;;;;;4906074;29;20028;-78
2021/09/14 03:39:45;;;;;;;7.20;5.50;;;;;;;;;;4908739;29;20082;-78
2021/09/14 03:42:30;;;;;;;7.25;5.18;;;;;;;;;;4934600;29;20039;-80
2021/09/14 03:45:16;;;;;;;9.85;5.80;;;;;;;;;;4910572;29;20051;-80
2021/09/14 03:48:01;;;;;;;9.65;5.82;;;;;;;;;;4911196;29;20094;-80
2021/09/14 03:50:47;;;;;;;9.02;5.90;;;;;;;;;;4905979;29;20091;-80
2021/09/14 03:53:32;;;;;;;10.10;5.82;;;;;;;;;;4889859;29;20019;-80
2021/09/14 03:56:17;;;;;;;9.85;6.05;;;;;;;;;;4901728;29;20553;-80
2021/09/14 03:59:03;;;;;;;7.90;5.40;;;;;;;;;;4900621;29;20070;-81
2021/09/14 04:01:55;;;;;;;10.20;6.63;;;;;;;;;;4908474;29;20047;-80
2021/09/14 04:10:58;;;;;;;8.43;6.07;;;;;;;;;;4868630;29;20063;-80
2021/09/14 04:13:43;;;;;;;10.23;6.07;;;;;;;;;;4872519;29;20372;-79
2021/09/14 04:16:28;;;;;;;12.65;6.28;;;;;;;;;;4900217;29;20147;-79
2021/09/14 04:19:14;;;;;;;9.23;5.97;;;;;;;;;;4902801;29;20036;-79
2021/09/14 04:21:59;;;;;;;8.68;5.97;;;;;;;;;;4908269;29;20505;-80
2021/09/14 04:24:44;;;;;;;8.90;5.70;;;;;;;;;;4900550;29;20497;-79
2021/09/14 04:27:29;;;;;;;10.05;6.13;;;;;;;;;;4906382;29;20030;-79
2021/09/14 04:30:14;;;;;;;8.77;6.55;;;;;;;;;;4908859;29;20028;-79
2021/09/14 04:33:00;;;;;;;11.90;6.05;;;;;;;;;;4911624;29;20045;-80
2021/09/14 04:35:45;;;;;;;8.45;5.82;;;;;;;;;;4909444;29;20036;-81
2021/09/14 04:38:30;;;;;;;8.38;6.07;;;;;;;;;;4909037;29;20035;-82
2021/09/14 04:41:16;;;;;;;9.63;5.85;;;;;;;;;;4908969;29;20035;-82
2021/09/14 04:44:01;;;;;;;8.02;5.70;;;;;;;;;;4902292;29;20065;-81
2021/09/14 04:46:46;;;;;;;7.85;5.65;;;;;;;;;;4901202;29;20028;-82
2021/09/14 04:49:31;;;;;;;8.82;6.05;;;;;;;;;;4909360;29;20091;-81
2021/09/14 04:52:17;;;;;;;9.32;5.60;;;;;;;;;;4921988;29;20024;-82
2021/09/14 04:55:03;;;;;;;11.63;6.07;;;;;;;;;;4907431;29;20019;-81
2021/09/14 04:57:48;;;;;;;9.88;6.40;;;;;;;;;;4907470;29;20631;-82
2021/09/14 05:00:33;;;;;;;9.18;6.88;;;;;;;;;;4906950;29;20027;-82
2021/09/14 05:03:18;;;;;;;8.85;6.43;;;;;;;;;;4907284;29;20023;-81
2021/09/14 05:06:04;;;;;;;7.25;6.18;;;;;;;;;;4909494;29;20032;-81
2021/09/14 05:08:49;;;;;;;10.45;5.95;;;;;;;;;;4898805;29;20031;-82
2021/09/14 05:11:34;;;;;;;10.80;6.53;;;;;;;;;;4906275;29;20039;-81
2021/09/14 05:14:19;;;;;;;10.02;6.57;;;;;;;;;;4912578;29;20521;-82
2021/09/14 05:17:05;;;;;;;11.18;6.10;;;;;;;;;;4906602;29;20020;-81
2021/09/14 05:19:51;;;;;;;9.32;6.78;;;;;;;;;;4908033;29;20016;-80
2021/09/14 05:22:36;;;;;;;8.07;5.65;;;;;;;;;;4908704;29;20028;-82
2021/09/14 05:25:21;;;;;;;14.27;6.90;;;;;;;;;;4910567;29;20024;-82
2021/09/14 05:28:07;;;;;;;8.63;6.40;;;;;;;;;;4905184;29;20031;-80
2021/09/14 05:30:52;;;;;;;9.85;6.78;;;;;;;;;;4918103;29;20031;-80
2021/09/14 05:33:39;;;;;;;8.57;6.50;;;;;;;;;;4905156;29;20118;-80
2021/09/14 05:36:24;;;;;;;9.35;6.97;;;;;;;;;;4900068;29;20411;-80
2021/09/14 05:39:09;;;;;;;10.45;6.25;;;;;;;;;;4908623;29;20032;-82
2021/09/14 05:41:55;;;;;;;9.45;7.03;;;;;;;;;;4904592;29;20055;-82
2021/09/14 05:44:41;;;;;;;10.68;6.13;;;;;;;;;;4909971;29;20161;-80
2021/09/14 05:47:26;;;;;;;9.90;7.10;;;;;;;;;;4906651;29;20108;-81
2021/09/14 05:50:12;;;;;;;11.40;7.03;;;;;;;;;;4909124;29;20509;-80
2021/09/14 05:52:57;;;;;;;11.38;7.07;;;;;;;;;;4913620;29;20062;-81
2021/09/14 05:55:42;;;;;;;11.95;7.05;;;;;;;;;;4912425;29;20027;-83
2021/09/14 05:58:28;;;;;;;11.50;6.78;;;;;;;;;;4912277;29;20026;-82
2021/09/14 06:01:16;;;;;;;8.30;6.30;;;;;;;;;;4914901;29;20156;-80
2021/09/14 06:04:02;;;;;;;10.52;7.22;;;;;;;;;;4912710;29;20024;-81
2021/09/14 06:06:47;;;;;;;9.48;7.15;;;;;;;;;;4903092;29;20031;-83
2021/09/14 06:09:32;;;;;;;9.18;6.68;;;;;;;;;;4918253;29;20064;-82
2021/09/14 06:12:18;;;;;;;13.38;8.18;;;;;;;;;;4902210;29;20027;-80
2021/09/14 06:15:03;;;;;;;10.50;7.00;;;;;;;;;;4911643;29;20030;-80
2021/09/14 06:17:48;;;;;;;9.43;7.30;;;;;;;;;;4911800;29;20133;-79
2021/09/14 06:20:34;;;;;;;11.10;6.80;;;;;;;;;;4908139;29;20015;-81
2021/09/14 06:23:19;;;;;;;10.32;6.20;;;;;;;;;;4907043;29;20016;-81
2021/09/14 06:26:04;;;;;;;8.88;6.80;;;;;;;;;;4925406;29;20027;-81
2021/09/14 06:28:49;;;;;;;9.02;5.75;;;;;;;;;;4912469;29;20059;-82
2021/09/14 06:31:35;;;;;;;11.00;6.30;;;;;;;;;;4912880;29;20478;-82
2021/09/14 06:34:21;;;;;;;11.05;6.13;;;;;;;;;;4909437;29;20027;-82
2021/09/14 06:37:09;;;;;;;9.85;6.38;;;;;;;;;;4907252;29;20028;-82
2021/09/14 06:39:55;;;;;;;9.50;7.00;;;;;;;;;;4909122;29;20012;-81
2021/09/14 06:42:40;;;;;;;8.68;6.28;;;;;;;;;;4905617;29;20023;-81
2021/09/14 06:45:26;;;;;;;8.63;6.38;;;;;;;;;;4908525;29;20024;-79
2021/09/14 06:48:14;;;;;;;9.85;7.30;;;;;;;;;;4911508;29;20012;-80
2021/09/14 06:50:59;;;;;;;10.20;7.28;;;;;;;;;;4909548;29;20051;-80
2021/09/14 06:53:45;;;;;;;11.35;6.25;;;;;;;;;;4901473;29;20545;-80
2021/09/14 06:56:30;;;;;;;8.63;6.05;;;;;;;;;;4900727;29;20024;-79
2021/09/14 06:59:16;;;;;;;10.00;6.95;;;;;;;;;;4925553;29;20160;-80
2021/09/14 07:02:01;;;;;;;13.60;6.40;;;;;;;;;;4906611;29;20022;-81
2021/09/14 07:04:47;;;;;;;9.40;5.43;;;;;;;;;;4899517;29;20547;-80
2021/09/14 07:07:33;;;;;;;10.27;5.65;;;;;;;;;;4908639;29;20080;-82
2021/09/14 07:10:18;;;;;;;7.95;5.60;;;;;;;;;;4895478;29;20035;-82
2021/09/14 07:13:04;;;;;;;8.75;5.82;;;;;;;;;;4894738;29;20047;-81
2021/09/14 07:15:49;;;;;;;10.55;5.55;;;;;;;;;;4903399;29;20036;-82
2021/09/14 07:18:38;;;;;;;7.50;5.45;;;;;;;;;;4901345;29;20028;-82
2021/09/14 07:21:23;;;;;;;9.75;5.25;;;;;;;;;;4901053;29;20031;-81
2021/09/14 07:24:08;;;;;;;10.95;5.97;;;;;;;;;;4901632;29;20032;-80
2021/09/14 07:26:54;;;;;;;9.57;5.82;;;;;;;;;;4908187;29;20083;-84
2021/09/14 07:29:39;;;;;;;9.82;5.28;;;;;;;;;;4897680;29;20028;-85
2021/09/14 07:32:24;;;;;;;12.10;5.05;;;;;;;;;;4882535;29;20094;-87
2021/09/14 07:35:10;;;;;;;11.93;5.95;;;;;;;;;;4902318;29;20616;-84
2021/09/14 07:37:58;;;;;;;8.02;4.88;;;;;;;;;;4905678;29;20066;-87
2021/09/14 07:40:46;;;;;;;8.10;4.90;;;;;;;;;;4906279;29;20376;-86
2021/09/14 07:43:31;;;;;;;6.50;4.53;;;;;;;;;;4908295;29;20052;-86
2021/09/14 07:46:17;;;;;;;8.65;5.60;;;;;;;;;;4909744;29;20388;-86
2021/09/14 07:49:02;;;;;;;9.80;5.72;;;;;;;;;;4909329;29;20023;-85
2021/09/14 07:51:47;;;;;;;11.80;5.55;;;;;;;;;;4895678;29;20134;-85
2021/09/14 07:54:32;;;;;;;9.02;5.50;;;;;;;;;;4892615;29;20044;-85
2021/09/14 07:57:18;;;;;;;10.10;5.53;;;;;;;;;;4908229;29;20040;-85
2021/09/14 08:00:03;;;;;;;10.55;6.18;;;;;;;;;;4890223;29;20024;-86
2021/09/14 08:02:56;;;;;;;10.23;5.85;;;;;;;;;;4903811;29;20127;-85
2021/09/14 08:05:42;;;;;;;7.13;5.05;;;;;;;;;;4890098;29;20131;-85
2021/09/14 08:08:27;;;;;;;12.15;5.70;;;;;;;;;;4906064;29;20099;-86
2021/09/14 08:11:15;;;;;;;6.63;4.35;;;;;;;;;;4901609;29;20024;-86
2021/09/14 08:14:00;;;;;;;9.25;4.88;;;;;;;;;;4895151;29;20025;-84
2021/09/14 08:16:45;;;;;;;8.18;5.13;;;;;;;;;;4900462;29;20028;-85
2021/09/14 08:19:31;;;;;;;7.47;4.65;;;;;;;;;;4903597;29;20051;-84
2021/09/14 08:22:17;;;;;;;5.88;4.38;;;;;;;;;;4904904;29;20028;-84
2021/09/14 08:25:03;;;;;;;8.18;4.63;;;;;;;;;;4904499;29;20020;-82
2021/09/14 08:27:48;;;;;;;8.27;4.53;;;;;;;;;;4902662;29;20038;-86
2021/09/14 08:31:01;;;;;;;11.57;4.75;;;;;;;;;;4920778;29;20033;-90
2021/09/14 08:33:46;;;;;;;6.53;4.65;;;;;;;;;;4901628;29;20020;-87
2021/09/14 08:36:31;;;;;;;13.88;6.75;;;;;;;;;;4893562;29;20129;-88
2021/09/14 08:39:17;;;;;;;8.73;4.72;;;;;;;;;;4896352;29;20029;-86
2021/09/14 08:42:02;;;;;;;12.45;5.45;;;;;;;;;;4900042;29;20062;-87
2021/09/14 08:44:48;;;;;;;14.45;6.60;;;;;;;;;;4898056;29;20032;-87
2021/09/14 08:47:33;;;;;;;38.17;11.13;;;;;;;;;;4886500;29;20033;-86
2021/09/14 08:50:25;;;;;;;86.97;24.08;;;;;;;;;;4899910;29;20364;-86
2021/09/14 08:53:10;;;;;;;43.30;15.10;;;;;;;;;;4897343;29;20107;-86
2021/09/14 08:55:55;;;;;;;10.48;5.68;;;;;;;;;;4891733;29;20024;-87
2021/09/14 08:58:41;;;;;;;18.15;7.78;;;;;;;;;;4900321;29;20446;-86
2021/09/14 09:01:27;;;;;;;16.75;6.00;;;;;;;;;;4898563;29;20039;-86
2021/09/14 09:04:13;;;;;;;16.53;7.83;;;;;;;;;;4866742;29;1173371;-83
2021/09/14 09:06:58;;;;;;;12.93;6.65;;;;;;;;;;4906587;29;20743;-85
2021/09/14 09:09:43;;;;;;;14.52;7.05;;;;;;;;;;4900212;29;20024;-88
2021/09/14 09:12:35;;;;;;;9.05;4.90;;;;;;;;;;4902895;29;20030;-87
2021/09/14 09:15:27;;;;;;;10.00;5.78;;;;;;;;;;4908732;29;20027;-83
2021/09/14 09:18:14;;;;;;;11.30;5.53;;;;;;;;;;4905983;29;20025;-82
2021/09/14 09:21:01;;;;;;;9.48;4.57;;;;;;;;;;4910879;29;20019;-83
2021/09/14 09:23:54;;;;;;;13.50;5.00;;;;;;;;;;4919469;29;20019;-83
2021/09/14 09:26:41;;;;;;;8.07;4.75;;;;;;;;;;4894348;29;20038;-83
2021/09/14 09:29:28;;;;;;;9.85;5.13;;;;;;;;;;4911131;29;20028;-83
2021/09/14 09:32:13;;;;;;;6.07;4.22;;;;;;;;;;4913355;29;20028;-81
2021/09/14 09:34:59;;;;;;;9.27;4.32;;;;;;;;;;4913053;29;20029;-80
2021/09/14 09:37:50;;;;;;;6.75;4.50;;;;;;;;;;4909065;29;20031;-82
2021/09/14 09:40:36;;;;;;;7.22;4.07;;;;;;;;;;4917896;29;20538;-81
2021/09/14 09:43:28;;;;;;;8.45;4.97;;;;;;;;;;4912103;29;20032;-81
2021/09/14 09:46:21;;;;;;;7.95;4.57;;;;;;;;;;4908009;29;20028;-84
2021/09/14 09:49:10;;;;;;;7.07;3.90;;;;;;;;;;4904121;29;20019;-82
2021/09/14 09:51:57;;;;;;;6.45;4.20;;;;;;;;;;4905775;29;20031;-82
2021/09/14 09:54:43;;;;;;;5.80;4.38;;;;;;;;;;4907133;29;20263;-82
2021/09/14 09:57:28;;;;;;;6.47;4.15;;;;;;;;;;4912080;29;20160;-83
2021/09/14 10:00:16;;;;;;;5.30;3.90;;;;;;;;;;4913343;29;20082;-86
2021/09/14 10:03:03;;;;;;;8.02;4.00;;;;;;;;;;4914657;29;20020;-85
2021/09/14 10:05:50;;;;;;;7.50;4.55;;;;;;;;;;4913719;29;20058;-86
2021/09/14 10:08:36;;;;;;;7.50;4.03;;;;;;;;;;4912317;29;20032;-83
2021/09/14 10:11:29;;;;;;;8.68;4.55;;;;;;;;;;4910088;29;20094;-85
2021/09/14 10:14:15;;;;;;;5.30;4.40;;;;;;;;;;4912743;29;20039;-84
2021/09/14 10:17:04;;;;;;;7.20;4.22;;;;;;;;;;4914918;29;20040;-82
2021/09/14 10:19:49;;;;;;;5.38;4.05;;;;;;;;;;4913896;29;20062;-82
2021/09/14 10:22:35;;;;;;;4.75;4.10;;;;;;;;;;4909254;29;20031;-82
2021/09/14 10:25:21;;;;;;;5.13;3.80;;;;;;;;;;4905643;29;20039;-83
2021/09/14 10:28:10;;;;;;;6.90;3.95;;;;;;;;;;4906481;29;20122;-83
2021/09/14 10:30:55;;;;;;;4.50;3.92;;;;;;;;;;4908102;29;20032;-82
2021/09/14 10:33:41;;;;;;;6.13;4.25;;;;;;;;;;4910752;29;20034;-82
2021/09/14 10:36:26;;;;;;;5.70;4.03;;;;;;;;;;4908903;29;20475;-82
2021/09/14 10:39:31;;;;;;;6.90;3.90;;;;;;;;;;4908623;29;20035;-83
2021/09/14 10:42:18;;;;;;;6.30;4.30;;;;;;;;;;4907764;29;20020;-82
2021/09/14 10:45:08;;;;;;;4.55;3.63;;;;;;;;;;4914398;29;20427;-83
2021/09/14 10:47:53;;;;;;;5.78;3.60;;;;;;;;;;4913728;29;20046;-81
2021/09/14 10:50:39;;;;;;;4.70;4.05;;;;;;;;;;4910128;29;20071;-85
2021/09/14 10:53:26;;;;;;;4.88;4.07;;;;;;;;;;4903150;29;20081;-83
2021/09/14 10:56:12;;;;;;;6.57;4.28;;;;;;;;;;4910688;29;20043;-84
2021/09/14 10:58:58;;;;;;;6.60;4.03;;;;;;;;;;4906543;29;20032;-83
2021/09/14 11:01:47;;;;;;;6.32;4.60;;;;;;;;;;4908243;29;20084;-83
2021/09/14 11:04:32;;;;;;;6.05;4.13;;;;;;;;;;4903551;29;20540;-84
2021/09/14 11:07:20;;;;;;;6.75;4.07;;;;;;;;;;4911379;29;20063;-83
2021/09/14 11:10:15;;;;;;;6.18;3.90;;;;;;;;;;4904930;29;20028;-86
2021/09/14 11:13:03;;;;;;;8.50;4.80;;;;;;;;;;4913643;29;20415;-85
2021/09/14 11:15:49;;;;;;;;;;;;;;;;;;4922674;29;20115;-84
2021/09/14 11:18:34;;;;;;;6.45;4.40;;;;;;;;;;4911256;29;19914;-87
2021/09/14 11:21:23;;;;;;;6.80;4.43;;;;;;;;;;4914421;29;20024;-87
2021/09/14 11:24:08;;;;;;;7.43;4.45;;;;;;;;;;4910770;29;20031;-87
2021/09/14 11:26:55;;;;;;;6.28;4.82;;;;;;;;;;4930571;29;20055;-85
2021/09/14 11:29:43;;;;;;;7.07;4.05;;;;;;;;;;4903229;29;20061;-87
2021/09/14 11:32:28;;;;;;;4.53;4.13;;;;;;;;;;4904904;29;20491;-86
2021/09/14 11:35:15;;;;;;;9.18;4.40;;;;;;;;;;4901511;29;20475;-85
2021/09/14 11:38:05;;;;;;;8.55;4.53;;;;;;;;;;4907455;29;20028;-86
2021/09/14 11:40:57;;;;;;;6.07;4.80;;;;;;;;;;4911466;29;20032;-85
2021/09/14 11:43:48;;;;;;;7.53;4.82;;;;;;;;;;4908465;29;20507;-84
2021/09/14 11:46:33;;;;;;;12.77;5.28;;;;;;;;;;4896890;29;20427;-86
2021/09/14 11:49:25;;;;;;;6.53;4.68;;;;;;;;;;4906647;29;20035;-87
2021/09/14 11:52:10;;;;;;;7.68;4.93;;;;;;;;;;4916498;29;20024;-87
2021/09/14 11:54:58;;;;;;;5.95;5.03;;;;;;;;;;4906630;29;20031;-89
2021/09/14 11:57:55;;;;;;;6.28;4.72;;;;;;;;;;4907672;29;21743;-86
2021/09/14 12:00:45;;;;;;;9.52;5.13;;;;;;;;;;4902925;29;20024;-86
2021/09/14 12:03:37;;;;;;;8.38;5.25;;;;;;;;;;4901937;29;20092;-87
2021/09/14 12:06:30;;;;;;;5.32;4.78;;;;;;;;;;4902519;29;20513;-88
2021/09/14 12:09:17;;;;;;;5.95;4.88;;;;;;;;;;4912402;29;20035;-89
2021/09/14 12:12:03;;;;;;;10.05;4.78;;;;;;;;;;4915634;29;20063;-89
2021/09/14 12:14:54;;;;;;;7.78;4.82;;;;;;;;;;4912556;29;20031;-89
2021/09/14 12:17:39;;;;;;;8.45;4.75;;;;;;;;;;4910655;29;20130;-87
2021/09/14 12:20:28;;;;;;;7.80;4.95;;;;;;;;;;4908004;29;20079;-90
2021/09/14 12:23:16;;;;;;;9.07;4.50;;;;;;;;;;4911225;29;20042;-88
2021/09/14 12:26:01;;;;;;;6.72;5.03;;;;;;;;;;4909389;29;20024;-89
2021/09/14 12:28:48;;;;;;;9.38;4.95;;;;;;;;;;4919156;29;20036;-90
2021/09/14 12:31:34;;;;;;;5.93;4.88;;;;;;;;;;4914898;29;20043;-88
2021/09/14 12:34:19;;;;;;;7.15;4.75;;;;;;;;;;4902205;29;20107;-89
2021/09/14 12:37:05;;;;;;;8.40;4.53;;;;;;;;;;4912832;29;20020;-88
2021/09/14 12:39:50;;;;;;;7.60;5.00;;;;;;;;;;4912520;29;20040;-88
2021/09/14 12:42:36;;;;;;;9.02;5.32;;;;;;;;;;4898652;29;20063;-88
2021/09/14 12:45:24;;;;;;;8.05;4.97;;;;;;;;;;4909658;29;20042;-87
2021/09/14 12:48:09;;;;;;;9.57;5.22;;;;;;;;;;4911204;29;20026;-88
2021/09/14 12:50:55;;;;;;;10.95;4.68;;;;;;;;;;4918578;29;20079;-87
2021/09/14 12:53:40;;;;;;;9.27;4.85;;;;;;;;;;4911943;29;20055;-88
2021/09/14 12:56:26;;;;;;;8.57;5.00;;;;;;;;;;4905791;29;20107;-88
2021/09/14 12:59:11;;;;;;;8.80;5.10;;;;;;;;;;4916123;29;20063;-88
2021/09/14 13:01:57;;;;;;;6.78;4.88;;;;;;;;;;4914662;29;20028;-86
2021/09/14 13:04:42;;;;;;;6.22;4.53;;;;;;;;;;4913718;29;20048;-86
2021/09/14 13:07:27;;;;;;;6.72;4.95;;;;;;;;;;4919615;29;20052;-86
2021/09/14 13:10:13;;;;;;;8.93;5.35;;;;;;;;;;4919252;29;20087;-83
2021/09/14 13:16:31;;;;;;;7.25;4.63;;;;;;;;;;4933929;29;20027;-86
2021/09/14 13:19:17;;;;;;;7.07;4.50;;;;;;;;;;4925271;29;20032;-85
2021/09/14 13:22:02;;;;;;;6.97;4.97;;;;;;;;;;4932309;29;20035;-85
2021/09/14 13:24:47;;;;;;;9.05;5.00;;;;;;;;;;4906078;29;20124;-86
2021/09/14 13:27:33;;;;;;;6.53;4.78;;;;;;;;;;4928819;29;20099;-87
2021/09/14 13:30:18;;;;;;;8.10;4.97;;;;;;;;;;4933500;28;20023;-86
2021/09/14 13:33:03;;;;;;;7.65;4.88;;;;;;;;;;4945192;28;20246;-85
2021/09/14 13:35:48;;;;;;;8.20;4.88;;;;;;;;;;4930653;29;20051;-86
2021/09/14 13:38:34;;;;;;;7.65;4.70;;;;;;;;;;4937041;28;20039;-84
2021/09/14 13:41:26;;;;;;;9.98;5.13;;;;;;;;;;4936695;28;20068;-84
2021/09/14 13:47:24;;;;;;;7.10;4.50;;;;;;;;;;4919485;29;20011;-87
2021/09/14 13:50:21;;;;;;;8.30;4.70;;;;;;;;;;4936154;29;20050;-87
2021/09/14 13:53:07;;;;;;;5.75;4.72;;;;;;;;;;4931322;28;20257;-86
2021/09/14 13:55:55;;;;;;;9.90;4.90;;;;;;;;;;4933954;28;20032;-87
2021/09/14 13:58:42;;;;;;;10.25;4.85;;;;;;;;;;4934574;28;20287;-89
2021/09/14 14:01:28;;;;;;;7.25;4.80;;;;;;;;;;4935429;28;20027;-87
2021/09/14 14:04:13;;;;;;;6.30;4.97;;;;;;;;;;4933895;28;20015;-82
2021/09/14 14:06:59;;;;;;;7.10;4.40;;;;;;;;;;4929662;29;20024;-82
2021/09/14 14:09:44;;;;;;;8.90;5.30;;;;;;;;;;4933910;28;20007;-83
2021/09/14 14:12:36;;;;;;;8.48;5.43;;;;;;;;;;4933859;28;20087;-83
2021/09/14 14:15:22;;;;;;;8.70;5.63;;;;;;;;;;4921419;29;20106;-82
2021/09/14 14:18:08;;;;;;;7.60;5.20;;;;;;;;;;4915620;29;20032;-82
2021/09/14 14:20:53;;;;;;;6.90;4.75;;;;;;;;;;4919528;29;20031;-82
2021/09/14 14:23:38;;;;;;;8.52;5.22;;;;;;;;;;4908833;29;20028;-83
2021/09/14 14:26:24;;;;;;;6.60;4.93;;;;;;;;;;4909425;29;20024;-85
2021/09/14 14:29:09;;;;;;;8.95;5.35;;;;;;;;;;4897209;29;20402;-83
2021/09/14 14:31:56;;;;;;;7.53;5.25;;;;;;;;;;4896505;29;20390;-84
2021/09/14 14:34:41;;;;;;;8.18;5.78;;;;;;;;;;4905941;29;20059;-83
2021/09/14 14:37:26;;;;;;;6.95;5.15;;;;;;;;;;4892748;29;20039;-86
2021/09/14 14:40:11;;;;;;;8.10;5.78;;;;;;;;;;4912099;29;20039;-87
2021/09/14 14:42:57;;;;;;;7.60;5.55;;;;;;;;;;4902221;29;20034;-85
2021/09/14 14:45:42;;;;;;;7.85;5.57;;;;;;;;;;4935507;29;20032;-90
2021/09/14 14:48:28;;;;;;;7.32;5.10;;;;;;;;;;4912635;29;20419;-90
2021/09/14 14:51:13;;;;;;;8.93;5.30;;;;;;;;;;4914887;29;20046;-88
2021/09/14 14:53:59;;;;;;;9.65;5.55;;;;;;;;;;4924787;29;20110;-86
2021/09/14 14:56:44;;;;;;;10.05;4.95;;;;;;;;;;4911330;29;20061;-85
2021/09/14 14:59:30;;;;;;;6.97;5.35;;;;;;;;;;4913601;29;20024;-89
2021/09/14 15:02:15;;;;;;;6.75;5.30;;;;;;;;;;4909137;29;20544;-86
2021/09/14 15:05:01;;;;;;;7.50;5.43;;;;;;;;;;4911336;29;20079;-86
2021/09/14 15:07:46;;;;;;;7.18;4.97;;;;;;;;;;4906961;29;20036;-87
2021/09/14 15:10:31;;;;;;;8.60;5.18;;;;;;;;;;4898415;29;20036;-87
2021/09/14 15:13:17;;;;;;;9.77;5.70;;;;;;;;;;4903803;29;20028;-86
2021/09/14 15:16:02;;;;;;;6.82;5.18;;;;;;;;;;4909899;29;20036;-86
2021/09/14 15:18:47;;;;;;;5.55;4.65;;;;;;;;;;4909591;29;20032;-88
2021/09/14 15:21:33;;;;;;;6.47;5.20;;;;;;;;;;4910720;29;20083;-87
2021/09/14 15:24:18;;;;;;;11.13;5.30;;;;;;;;;;4909543;29;20028;-86
2021/09/14 15:27:03;;;;;;;12.90;5.95;;;;;;;;;;4908851;29;20024;-88
2021/09/14 15:29:49;;;;;;;7.32;6.05;;;;;;;;;;4916450;29;20163;-87
2021/09/14 15:32:34;;;;;;;10.77;6.38;;;;;;;;;;4902745;29;20123;-87
2021/09/14 15:35:21;;;;;;;11.07;5.97;;;;;;;;;;4910153;29;20039;-87
2021/09/14 15:38:26;;;;;;;8.20;6.22;;;;;;;;;;4921647;29;20023;-87
2021/09/14 15:41:12;;;;;;;8.43;5.20;;;;;;;;;;4903974;29;20453;-87
2021/09/14 15:43:57;;;;;;;8.80;5.25;;;;;;;;;;4926042;29;20135;-87
2021/09/14 15:46:42;;;;;;;8.10;5.47;;;;;;;;;;4910776;29;20032;-86
2021/09/14 15:49:28;;;;;;;8.27;5.07;;;;;;;;;;4906464;29;20107;-87
2021/09/14 15:52:13;;;;;;;7.97;5.60;;;;;;;;;;4910722;29;20176;-87
2021/09/14 15:54:58;;;;;;;10.50;6.35;;;;;;;;;;4908602;29;20039;-87
2021/09/14 15:57:43;;;;;;;10.32;6.30;;;;;;;;;;4906322;29;20062;-86
2021/09/14 16:00:29;;;;;;;10.45;5.90;;;;;;;;;;4904911;29;20023;-87
2021/09/14 16:03:14;;;;;;;9.10;6.00;;;;;;;;;;4897542;29;20079;-87
2021/09/14 16:06:00;;;;;;;8.80;6.25;;;;;;;;;;4907671;29;20094;-87
2021/09/14 16:08:45;;;;;;;15.25;6.90;;;;;;;;;;4905007;29;20028;-87
2021/09/14 16:11:30;;;;;;;8.63;6.38;;;;;;;;;;4924766;29;20040;-86
2021/09/14 16:14:16;;;;;;;8.23;7.18;;;;;;;;;;4913804;29;20039;-86
2021/09/14 16:17:01;;;;;;;10.98;7.15;;;;;;;;;;4908887;29;20119;-82
2021/09/14 16:19:46;;;;;;;8.48;5.85;;;;;;;;;;4908863;29;20043;-90
2021/09/14 16:22:33;;;;;;;7.90;6.15;;;;;;;;;;4905686;29;20096;-89
2021/09/14 16:25:18;;;;;;;8.57;5.72;;;;;;;;;;4907170;29;20036;-87
2021/09/14 16:28:03;;;;;;;9.57;6.25;;;;;;;;;;4908184;29;20031;-87
2021/09/14 16:30:49;;;;;;;11.38;6.70;;;;;;;;;;4908518;29;20051;-89
2021/09/14 16:33:34;;;;;;;10.70;5.90;;;;;;;;;;4901198;29;20031;-88
2021/09/14 16:36:20;;;;;;;9.23;6.65;;;;;;;;;;4893639;29;20039;-88
2021/09/14 16:39:05;;;;;;;8.82;6.18;;;;;;;;;;4911502;29;20487;-89
2021/09/14 16:41:51;;;;;;;11.15;6.57;;;;;;;;;;4923396;29;20070;-89
2021/09/14 16:44:36;;;;;;;10.43;6.88;;;;;;;;;;4917958;29;20023;-87
2021/09/14 16:47:22;;;;;;;11.63;7.20;;;;;;;;;;4918061;29;20024;-88
2021/09/14 16:50:08;;;;;;;12.85;6.35;;;;;;;;;;4910992;29;20062;-87
2021/09/14 16:52:53;;;;;;;11.52;6.63;;;;;;;;;;4910232;29;20067;-88
2021/09/14 16:55:38;;;;;;;10.43;6.18;;;;;;;;;;4904497;29;20035;-88
2021/09/14 16:58:24;;;;;;;8.70;6.63;;;;;;;;;;4910144;29;20031;-88
2021/09/14 17:01:09;;;;;;;12.98;6.15;;;;;;;;;;4891334;29;20106;-87
2021/09/14 17:03:54;;;;;;;10.95;6.93;;;;;;;;;;4905156;29;20565;-88
2021/09/14 17:06:40;;;;;;;9.88;7.15;;;;;;;;;;4901684;29;20127;-88
2021/09/14 17:09:25;;;;;;;31.30;26.98;;;;;;;;;;4907803;29;20122;-88
2021/09/14 17:12:11;;;;;;;58.33;52.08;;;;;;;;;;4908978;29;20936;-84
2021/09/14 17:14:56;;;;;;;139.70;124.78;;;;;;;;;;4914116;29;20443;-85
2021/09/14 17:17:42;;;;;;;136.00;124.20;;;;;;;;;;4902168;29;21944;-84
2021/09/14 17:20:27;;;;;;;178.15;148.98;;;;;;;;;;4906500;29;20428;-85
2021/09/14 17:23:12;;;;;;;63.42;57.60;;;;;;;;;;4893793;29;20023;-87
2021/09/14 17:25:58;;;;;;;65.30;49.65;;;;;;;;;;4899673;29;20059;-87
2021/09/14 17:28:43;;;;;;;78.00;60.40;;;;;;;;;;4903690;29;20028;-85
2021/09/14 17:31:29;;;;;;;17.92;14.82;;;;;;;;;;4893073;29;20055;-87
2021/09/14 17:34:16;;;;;;;10.60;7.57;;;;;;;;;;4909356;29;20471;-85
2021/09/14 17:37:03;;;;;;;13.48;10.27;;;;;;;;;;4914848;29;20692;-88